sensor_id;sensor_type;location;lat;lon;timestamp;P1;durP1;ratioP1;P2;durP2;ratioP2
9759;SDS011;4919;48.792;9.202;2023-04-01T00:01:38;9.33;;;3.30;;
9759;SDS011;4919;48.792;9.202;2023-04-01T00:04:23;5.87;;;3.37;;
9759;SDS011;4919;48.792;9.202;2023-04-01T00:07:08;7.70;;;3.23;;
9759;SDS011;4919;48.792;9.202;2023-04-01T00:09:53;6.47;;;3.23;;
9759;SDS011;4919;48.792;9.202;2023-04-01T00:12:38;7.13;;;3.47;;
9759;SDS011;4919;48.792;9.202;2023-04-01T00:15:23;5.07;;;3.30;;
9759;SDS011;4919;48.792;9.202;2023-04-01T00:18:08;6.70;;;3.50;;
9759;SDS011;4919;48.792;9.202;2023-04-01T00:20:53;7.57;;;3.50;;
9759;SDS011;4919;48.792;9.202;2023-04-01T00:23:38;7.47;;;3.60;;
9759;SDS011;4919;48.792;9.202;2023-04-01T00:26:23;8.33;;;4.07;;
9759;SDS011;4919;48.792;9.202;2023-04-01T00:29:08;5.40;;;3.53;;
9759;SDS011;4919;48.792;9.202;2023-04-01T00:31:52;9.13;;;3.60;;
9759;SDS011;4919;48.792;9.202;2023-04-01T00:34:37;5.87;;;3.20;;
9759;SDS011;4919;48.792;9.202;2023-04-01T00:37:22;6.87;;;3.50;;
9759;SDS011;4919;48.792;9.202;2023-04-01T00:40:08;5.53;;;3.57;;
9759;SDS011;4919;48.792;9.202;2023-04-01T00:43:13;7.30;;;3.50;;
9759;SDS011;4919;48.792;9.202;2023-04-01T00:46:03;5.67;;;3.23;;
9759;SDS011;4919;48.792;9.202;2023-04-01T00:48:48;5.93;;;3.40;;
9759;SDS011;4919;48.792;9.202;2023-04-01T00:51:36;5.63;;;3.17;;
9759;SDS011;4919;48.792;9.202;2023-04-01T00:54:22;5.93;;;3.00;;
9759;SDS011;4919;48.792;9.202;2023-04-01T00:57:13;5.73;;;3.60;;
9759;SDS011;4919;48.792;9.202;2023-04-01T01:00:05;5.80;;;3.43;;
9759;SDS011;4919;48.792;9.202;2023-04-01T01:02:52;7.63;;;3.23;;
9759;SDS011;4919;48.792;9.202;2023-04-01T01:05:41;7.30;;;3.20;;
9759;SDS011;4919;48.792;9.202;2023-04-01T01:11:55;8.60;;;3.07;;
9759;SDS011;4919;48.792;9.202;2023-04-01T01:27:19;7.80;;;3.33;;
9759;SDS011;4919;48.792;9.202;2023-04-01T01:36:08;5.23;;;3.20;;
9759;SDS011;4919;48.792;9.202;2023-04-01T01:38:55;7.70;;;3.40;;
9759;SDS011;4919;48.792;9.202;2023-04-01T01:41:42;8.23;;;3.80;;
9759;SDS011;4919;48.792;9.202;2023-04-01T01:44:30;4.20;;;3.37;;
9759;SDS011;4919;48.792;9.202;2023-04-01T01:47:16;6.30;;;3.23;;
9759;SDS011;4919;48.792;9.202;2023-04-01T01:50:02;10.63;;;3.53;;
9759;SDS011;4919;48.792;9.202;2023-04-01T01:52:49;6.50;;;3.23;;
9759;SDS011;4919;48.792;9.202;2023-04-01T01:55:35;8.67;;;4.10;;
9759;SDS011;4919;48.792;9.202;2023-04-01T01:58:22;11.07;;;3.80;;
9759;SDS011;4919;48.792;9.202;2023-04-01T02:01:16;8.17;;;3.43;;
9759;SDS011;4919;48.792;9.202;2023-04-01T02:04:04;8.90;;;3.40;;
9759;SDS011;4919;48.792;9.202;2023-04-01T02:06:54;7.93;;;3.30;;
9759;SDS011;4919;48.792;9.202;2023-04-01T02:09:43;7.47;;;3.20;;
9759;SDS011;4919;48.792;9.202;2023-04-01T02:12:28;7.80;;;3.50;;
9759;SDS011;4919;48.792;9.202;2023-04-01T02:15:14;7.20;;;3.20;;
9759;SDS011;4919;48.792;9.202;2023-04-01T02:18:00;11.50;;;3.40;;
9759;SDS011;4919;48.792;9.202;2023-04-01T02:20:45;11.40;;;3.37;;
9759;SDS011;4919;48.792;9.202;2023-04-01T02:23:30;6.07;;;3.47;;
9759;SDS011;4919;48.792;9.202;2023-04-01T02:26:19;7.47;;;3.23;;
9759;SDS011;4919;48.792;9.202;2023-04-01T02:29:05;6.17;;;3.10;;
9759;SDS011;4919;48.792;9.202;2023-04-01T02:31:51;10.63;;;3.57;;
9759;SDS011;4919;48.792;9.202;2023-04-01T02:34:37;9.67;;;3.50;;
9759;SDS011;4919;48.792;9.202;2023-04-01T02:37:22;7.43;;;3.30;;
9759;SDS011;4919;48.792;9.202;2023-04-01T02:40:07;4.67;;;3.33;;
9759;SDS011;4919;48.792;9.202;2023-04-01T02:42:55;8.07;;;3.43;;
9759;SDS011;4919;48.792;9.202;2023-04-01T02:45:40;8.10;;;3.57;;
9759;SDS011;4919;48.792;9.202;2023-04-01T02:48:25;4.93;;;3.27;;
9759;SDS011;4919;48.792;9.202;2023-04-01T02:51:09;12.67;;;3.30;;
9759;SDS011;4919;48.792;9.202;2023-04-01T02:53:54;7.60;;;3.40;;
9759;SDS011;4919;48.792;9.202;2023-04-01T02:56:39;6.33;;;3.73;;
9759;SDS011;4919;48.792;9.202;2023-04-01T02:59:24;8.73;;;3.33;;
9759;SDS011;4919;48.792;9.202;2023-04-01T03:02:09;9.63;;;3.70;;
9759;SDS011;4919;48.792;9.202;2023-04-01T03:04:54;8.57;;;3.83;;
9759;SDS011;4919;48.792;9.202;2023-04-01T03:07:39;10.40;;;4.00;;
9759;SDS011;4919;48.792;9.202;2023-04-01T03:10:24;7.63;;;3.47;;
9759;SDS011;4919;48.792;9.202;2023-04-01T03:13:09;9.00;;;3.83;;
9759;SDS011;4919;48.792;9.202;2023-04-01T03:15:54;8.93;;;3.90;;
9759;SDS011;4919;48.792;9.202;2023-04-01T03:18:39;10.17;;;4.77;;
9759;SDS011;4919;48.792;9.202;2023-04-01T03:21:24;10.53;;;5.50;;
9759;SDS011;4919;48.792;9.202;2023-04-01T03:24:09;13.97;;;6.40;;
9759;SDS011;4919;48.792;9.202;2023-04-01T03:26:54;15.17;;;7.47;;
9759;SDS011;4919;48.792;9.202;2023-04-01T03:29:39;11.17;;;6.83;;
9759;SDS011;4919;48.792;9.202;2023-04-01T03:32:24;13.00;;;5.93;;
9759;SDS011;4919;48.792;9.202;2023-04-01T03:35:09;12.23;;;6.50;;
9759;SDS011;4919;48.792;9.202;2023-04-01T03:37:54;12.50;;;6.47;;
9759;SDS011;4919;48.792;9.202;2023-04-01T03:40:41;9.37;;;4.97;;
9759;SDS011;4919;48.792;9.202;2023-04-01T03:43:27;10.90;;;5.30;;
9759;SDS011;4919;48.792;9.202;2023-04-01T03:46:16;10.90;;;5.20;;
9759;SDS011;4919;48.792;9.202;2023-04-01T03:49:10;8.27;;;4.50;;
9759;SDS011;4919;48.792;9.202;2023-04-01T03:51:55;6.43;;;4.20;;
9759;SDS011;4919;48.792;9.202;2023-04-01T03:54:40;11.10;;;4.20;;
9759;SDS011;4919;48.792;9.202;2023-04-01T03:57:25;9.97;;;4.23;;
9759;SDS011;4919;48.792;9.202;2023-04-01T04:00:10;8.80;;;4.13;;
9759;SDS011;4919;48.792;9.202;2023-04-01T04:02:55;8.90;;;4.30;;
9759;SDS011;4919;48.792;9.202;2023-04-01T04:05:47;9.03;;;4.27;;
9759;SDS011;4919;48.792;9.202;2023-04-01T04:08:33;10.40;;;4.07;;
9759;SDS011;4919;48.792;9.202;2023-04-01T04:11:19;11.97;;;4.00;;
9759;SDS011;4919;48.792;9.202;2023-04-01T04:14:04;8.80;;;4.17;;
9759;SDS011;4919;48.792;9.202;2023-04-01T04:16:49;7.97;;;4.03;;
9759;SDS011;4919;48.792;9.202;2023-04-01T04:19:34;11.73;;;4.43;;
9759;SDS011;4919;48.792;9.202;2023-04-01T04:22:19;8.93;;;4.00;;
9759;SDS011;4919;48.792;9.202;2023-04-01T04:25:04;9.43;;;3.73;;
9759;SDS011;4919;48.792;9.202;2023-04-01T04:27:49;13.73;;;4.47;;
9759;SDS011;4919;48.792;9.202;2023-04-01T04:30:34;10.50;;;3.90;;
9759;SDS011;4919;48.792;9.202;2023-04-01T04:33:19;14.77;;;4.40;;
9759;SDS011;4919;48.792;9.202;2023-04-01T04:36:04;13.23;;;3.93;;
9759;SDS011;4919;48.792;9.202;2023-04-01T04:38:49;7.63;;;3.90;;
9759;SDS011;4919;48.792;9.202;2023-04-01T04:41:36;8.87;;;4.07;;
9759;SDS011;4919;48.792;9.202;2023-04-01T04:44:21;7.53;;;3.70;;
9759;SDS011;4919;48.792;9.202;2023-04-01T04:47:06;8.17;;;4.03;;
9759;SDS011;4919;48.792;9.202;2023-04-01T04:49:51;9.90;;;4.90;;
9759;SDS011;4919;48.792;9.202;2023-04-01T04:52:36;12.80;;;4.17;;
9759;SDS011;4919;48.792;9.202;2023-04-01T04:55:21;15.53;;;4.30;;
9759;SDS011;4919;48.792;9.202;2023-04-01T04:58:06;14.17;;;4.67;;
9759;SDS011;4919;48.792;9.202;2023-04-01T05:00:51;12.13;;;4.20;;
9759;SDS011;4919;48.792;9.202;2023-04-01T05:03:35;13.00;;;4.07;;
9759;SDS011;4919;48.792;9.202;2023-04-01T05:06:21;10.07;;;4.10;;
9759;SDS011;4919;48.792;9.202;2023-04-01T05:09:06;12.03;;;4.57;;
9759;SDS011;4919;48.792;9.202;2023-04-01T05:11:50;10.70;;;4.60;;
9759;SDS011;4919;48.792;9.202;2023-04-01T05:14:35;9.43;;;4.43;;
9759;SDS011;4919;48.792;9.202;2023-04-01T05:17:20;8.03;;;4.10;;
9759;SDS011;4919;48.792;9.202;2023-04-01T05:20:05;11.90;;;4.47;;
9759;SDS011;4919;48.792;9.202;2023-04-01T05:22:55;12.87;;;4.30;;
9759;SDS011;4919;48.792;9.202;2023-04-01T05:25:40;12.70;;;4.67;;
9759;SDS011;4919;48.792;9.202;2023-04-01T05:28:25;9.77;;;4.30;;
9759;SDS011;4919;48.792;9.202;2023-04-01T05:31:10;10.70;;;4.23;;
9759;SDS011;4919;48.792;9.202;2023-04-01T05:33:55;14.80;;;4.10;;
9759;SDS011;4919;48.792;9.202;2023-04-01T05:36:39;9.20;;;4.03;;
9759;SDS011;4919;48.792;9.202;2023-04-01T05:39:24;10.00;;;3.90;;
9759;SDS011;4919;48.792;9.202;2023-04-01T05:42:09;12.13;;;4.10;;
9759;SDS011;4919;48.792;9.202;2023-04-01T05:44:54;15.13;;;4.47;;
9759;SDS011;4919;48.792;9.202;2023-04-01T05:47:39;9.57;;;4.20;;
9759;SDS011;4919;48.792;9.202;2023-04-01T05:50:24;12.57;;;4.73;;
9759;SDS011;4919;48.792;9.202;2023-04-01T05:53:09;12.37;;;4.70;;
9759;SDS011;4919;48.792;9.202;2023-04-01T05:55:54;13.97;;;4.97;;
9759;SDS011;4919;48.792;9.202;2023-04-01T05:58:38;12.00;;;5.00;;
9759;SDS011;4919;48.792;9.202;2023-04-01T06:01:23;10.60;;;4.50;;
9759;SDS011;4919;48.792;9.202;2023-04-01T06:04:13;10.20;;;4.57;;
9759;SDS011;4919;48.792;9.202;2023-04-01T06:06:59;11.77;;;4.50;;
9759;SDS011;4919;48.792;9.202;2023-04-01T06:09:44;14.43;;;4.73;;
9759;SDS011;4919;48.792;9.202;2023-04-01T06:12:34;13.00;;;4.90;;
9759;SDS011;4919;48.792;9.202;2023-04-01T06:25:17;11.90;;;4.60;;
9759;SDS011;4919;48.792;9.202;2023-04-01T06:28:48;13.43;;;4.50;;
9759;SDS011;4919;48.792;9.202;2023-04-01T06:38:01;7.87;;;3.97;;
9759;SDS011;4919;48.792;9.202;2023-04-01T06:41:03;8.97;;;4.20;;
9759;SDS011;4919;48.792;9.202;2023-04-01T06:44:14;8.97;;;4.10;;
9759;SDS011;4919;48.792;9.202;2023-04-01T06:50:30;11.47;;;4.20;;
9759;SDS011;4919;48.792;9.202;2023-04-01T06:53:41;9.00;;;4.50;;
9759;SDS011;4919;48.792;9.202;2023-04-01T06:56:40;10.90;;;4.47;;
9759;SDS011;4919;48.792;9.202;2023-04-01T06:59:28;15.33;;;4.27;;
9759;SDS011;4919;48.792;9.202;2023-04-01T07:02:28;10.97;;;4.47;;
9759;SDS011;4919;48.792;9.202;2023-04-01T07:05:21;9.07;;;4.80;;
9759;SDS011;4919;48.792;9.202;2023-04-01T07:08:16;7.87;;;4.30;;
9759;SDS011;4919;48.792;9.202;2023-04-01T07:11:17;11.23;;;4.60;;
9759;SDS011;4919;48.792;9.202;2023-04-01T07:17:14;10.83;;;5.00;;
9759;SDS011;4919;48.792;9.202;2023-04-01T07:20:19;11.40;;;4.57;;
9759;SDS011;4919;48.792;9.202;2023-04-01T07:23:11;10.03;;;4.10;;
9759;SDS011;4919;48.792;9.202;2023-04-01T07:26:19;8.97;;;4.07;;
9759;SDS011;4919;48.792;9.202;2023-04-01T07:29:11;12.73;;;4.03;;
9759;SDS011;4919;48.792;9.202;2023-04-01T07:35:18;7.10;;;3.23;;
9759;SDS011;4919;48.792;9.202;2023-04-01T07:38:11;8.10;;;3.57;;
9759;SDS011;4919;48.792;9.202;2023-04-01T08:21:00;8.60;;;2.80;;
9759;SDS011;4919;48.792;9.202;2023-04-01T08:23:48;7.73;;;2.90;;
9759;SDS011;4919;48.792;9.202;2023-04-01T08:30:15;9.93;;;2.93;;
9759;SDS011;4919;48.792;9.202;2023-04-01T08:32:41;7.47;;;2.67;;
9759;SDS011;4919;48.792;9.202;2023-04-01T08:35:34;7.77;;;3.20;;
9759;SDS011;4919;48.792;9.202;2023-04-01T08:54:05;5.97;;;2.60;;
9759;SDS011;4919;48.792;9.202;2023-04-01T08:57:04;4.10;;;2.40;;
9759;SDS011;4919;48.792;9.202;2023-04-01T09:00:19;7.63;;;2.60;;
9759;SDS011;4919;48.792;9.202;2023-04-01T09:06:23;3.90;;;2.13;;
9759;SDS011;4919;48.792;9.202;2023-04-01T09:09:33;3.60;;;2.17;;
9759;SDS011;4919;48.792;9.202;2023-04-01T09:16:10;6.20;;;2.13;;
9759;SDS011;4919;48.792;9.202;2023-04-01T09:21:57;5.23;;;1.93;;
9759;SDS011;4919;48.792;9.202;2023-04-01T09:28:18;3.40;;;1.93;;
9759;SDS011;4919;48.792;9.202;2023-04-01T09:37:45;6.80;;;5.20;;
9759;SDS011;4919;48.792;9.202;2023-04-01T09:55:18;14.20;;;11.70;;
9759;SDS011;4919;48.792;9.202;2023-04-01T09:58:25;13.37;;;11.30;;
9759;SDS011;4919;48.792;9.202;2023-04-01T10:01:39;9.77;;;8.60;;
9759;SDS011;4919;48.792;9.202;2023-04-01T10:14:22;8.10;;;6.10;;
9759;SDS011;4919;48.792;9.202;2023-04-01T10:17:27;10.77;;;6.97;;
9759;SDS011;4919;48.792;9.202;2023-04-01T10:20:52;7.13;;;5.70;;
9759;SDS011;4919;48.792;9.202;2023-04-01T10:36:53;8.47;;;6.70;;
9759;SDS011;4919;48.792;9.202;2023-04-01T10:49:26;10.83;;;8.93;;
9759;SDS011;4919;48.792;9.202;2023-04-01T10:59:00;11.50;;;8.30;;
9759;SDS011;4919;48.792;9.202;2023-04-01T11:21:39;11.10;;;8.80;;
9759;SDS011;4919;48.792;9.202;2023-04-01T11:44:46;8.10;;;6.90;;
9759;SDS011;4919;48.792;9.202;2023-04-01T11:51:15;7.70;;;6.73;;
9759;SDS011;4919;48.792;9.202;2023-04-01T12:09:46;6.50;;;5.87;;
9759;SDS011;4919;48.792;9.202;2023-04-01T12:12:42;6.47;;;5.77;;
9759;SDS011;4919;48.792;9.202;2023-04-01T12:15:51;12.70;;;11.03;;
9759;SDS011;4919;48.792;9.202;2023-04-01T12:18:59;8.40;;;7.50;;
9759;SDS011;4919;48.792;9.202;2023-04-01T12:21:51;7.27;;;6.17;;
9759;SDS011;4919;48.792;9.202;2023-04-01T12:24:42;7.23;;;5.70;;
9759;SDS011;4919;48.792;9.202;2023-04-01T12:31:02;7.37;;;5.83;;
9759;SDS011;4919;48.792;9.202;2023-04-01T12:52:32;4.60;;;4.10;;
9759;SDS011;4919;48.792;9.202;2023-04-01T12:55:27;5.47;;;4.83;;
9759;SDS011;4919;48.792;9.202;2023-04-01T13:01:39;5.60;;;5.10;;
9759;SDS011;4919;48.792;9.202;2023-04-01T13:04:40;5.43;;;4.87;;
9759;SDS011;4919;48.792;9.202;2023-04-01T13:08:01;5.30;;;4.80;;
9759;SDS011;4919;48.792;9.202;2023-04-01T13:17:35;5.20;;;4.70;;
9759;SDS011;4919;48.792;9.202;2023-04-01T13:23:42;5.20;;;4.23;;
9759;SDS011;4919;48.792;9.202;2023-04-01T13:32:36;5.57;;;4.60;;
9759;SDS011;4919;48.792;9.202;2023-04-01T13:41:50;5.30;;;4.67;;
9759;SDS011;4919;48.792;9.202;2023-04-01T13:44:48;4.43;;;4.03;;
9759;SDS011;4919;48.792;9.202;2023-04-01T13:53:58;5.70;;;4.70;;
9759;SDS011;4919;48.792;9.202;2023-04-01T14:02:50;4.73;;;4.20;;
9759;SDS011;4919;48.792;9.202;2023-04-01T14:06:05;5.93;;;4.80;;
9759;SDS011;4919;48.792;9.202;2023-04-01T14:21:55;9.93;;;8.87;;
9759;SDS011;4919;48.792;9.202;2023-04-01T14:25:20;9.10;;;8.10;;
9759;SDS011;4919;48.792;9.202;2023-04-01T14:50:11;8.43;;;7.50;;
9759;SDS011;4919;48.792;9.202;2023-04-01T14:53:16;9.57;;;8.03;;
9759;SDS011;4919;48.792;9.202;2023-04-01T14:56:07;8.57;;;7.77;;
9759;SDS011;4919;48.792;9.202;2023-04-01T14:58:57;9.23;;;8.23;;
9759;SDS011;4919;48.792;9.202;2023-04-01T15:05:07;9.50;;;7.93;;
9759;SDS011;4919;48.792;9.202;2023-04-01T15:08:14;9.33;;;7.93;;
9759;SDS011;4919;48.792;9.202;2023-04-01T15:11:21;8.67;;;7.60;;
9759;SDS011;4919;48.792;9.202;2023-04-01T15:26:37;9.03;;;6.73;;
9759;SDS011;4919;48.792;9.202;2023-04-01T15:29:47;7.73;;;6.50;;
9759;SDS011;4919;48.792;9.202;2023-04-01T15:39:01;7.17;;;5.83;;
9759;SDS011;4919;48.792;9.202;2023-04-01T15:45:01;8.60;;;5.93;;
9759;SDS011;4919;48.792;9.202;2023-04-01T15:51:16;6.20;;;5.60;;
9759;SDS011;4919;48.792;9.202;2023-04-01T15:54:38;5.23;;;4.63;;
9759;SDS011;4919;48.792;9.202;2023-04-01T16:01:07;7.87;;;5.60;;
9759;SDS011;4919;48.792;9.202;2023-04-01T16:04:19;7.57;;;6.07;;
9759;SDS011;4919;48.792;9.202;2023-04-01T16:13:55;9.57;;;6.53;;
9759;SDS011;4919;48.792;9.202;2023-04-01T16:20:18;9.63;;;7.17;;
9759;SDS011;4919;48.792;9.202;2023-04-01T16:23:13;5.90;;;5.20;;
9759;SDS011;4919;48.792;9.202;2023-04-01T16:32:22;5.80;;;4.57;;
9759;SDS011;4919;48.792;9.202;2023-04-01T16:35:16;7.93;;;5.10;;
9759;SDS011;4919;48.792;9.202;2023-04-01T16:38:18;6.17;;;5.03;;
9759;SDS011;4919;48.792;9.202;2023-04-01T16:44:17;8.67;;;6.37;;
9759;SDS011;4919;48.792;9.202;2023-04-01T16:47:06;6.90;;;6.20;;
9759;SDS011;4919;48.792;9.202;2023-04-01T16:50:00;7.93;;;7.13;;
9759;SDS011;4919;48.792;9.202;2023-04-01T16:53:08;8.53;;;7.30;;
9759;SDS011;4919;48.792;9.202;2023-04-01T17:01:54;10.00;;;8.50;;
9759;SDS011;4919;48.792;9.202;2023-04-01T17:11:07;11.63;;;9.53;;
9759;SDS011;4919;48.792;9.202;2023-04-01T17:14:17;12.17;;;8.47;;
9759;SDS011;4919;48.792;9.202;2023-04-01T17:17:23;9.63;;;8.63;;
9759;SDS011;4919;48.792;9.202;2023-04-01T17:20:25;8.90;;;8.00;;
9759;SDS011;4919;48.792;9.202;2023-04-01T17:23:27;10.83;;;7.73;;
9759;SDS011;4919;48.792;9.202;2023-04-01T17:29:44;9.30;;;7.87;;
9759;SDS011;4919;48.792;9.202;2023-04-01T17:33:11;8.67;;;7.77;;
9759;SDS011;4919;48.792;9.202;2023-04-01T17:42:40;9.07;;;7.53;;
9759;SDS011;4919;48.792;9.202;2023-04-01T17:45:54;9.67;;;8.23;;
9759;SDS011;4919;48.792;9.202;2023-04-01T17:51:35;8.17;;;7.30;;
9759;SDS011;4919;48.792;9.202;2023-04-01T17:57:34;13.47;;;7.90;;
9759;SDS011;4919;48.792;9.202;2023-04-01T18:00:33;8.90;;;7.60;;
9759;SDS011;4919;48.792;9.202;2023-04-01T18:10:41;7.40;;;6.50;;
9759;SDS011;4919;48.792;9.202;2023-04-01T18:19:53;8.80;;;7.17;;
9759;SDS011;4919;48.792;9.202;2023-04-01T18:25:45;8.80;;;7.47;;
9759;SDS011;4919;48.792;9.202;2023-04-01T18:28:40;9.63;;;7.20;;
9759;SDS011;4919;48.792;9.202;2023-04-01T18:31:34;10.13;;;7.70;;
9759;SDS011;4919;48.792;9.202;2023-04-01T18:34:42;7.73;;;6.97;;
9759;SDS011;4919;48.792;9.202;2023-04-01T18:37:39;9.37;;;7.83;;
9759;SDS011;4919;48.792;9.202;2023-04-01T18:40:32;7.93;;;6.33;;
9759;SDS011;4919;48.792;9.202;2023-04-01T18:43:22;7.20;;;6.30;;
9759;SDS011;4919;48.792;9.202;2023-04-01T18:46:26;7.87;;;5.83;;
9759;SDS011;4919;48.792;9.202;2023-04-01T18:49:21;7.97;;;5.87;;
9759;SDS011;4919;48.792;9.202;2023-04-01T18:52:36;7.20;;;5.77;;
9759;SDS011;4919;48.792;9.202;2023-04-01T18:55:29;8.50;;;6.10;;
9759;SDS011;4919;48.792;9.202;2023-04-01T18:58:35;8.23;;;5.60;;
9759;SDS011;4919;48.792;9.202;2023-04-01T19:04:30;18.77;;;13.10;;
9759;SDS011;4919;48.792;9.202;2023-04-01T19:10:31;5.63;;;5.00;;
9759;SDS011;4919;48.792;9.202;2023-04-01T19:16:53;5.67;;;4.30;;
9759;SDS011;4919;48.792;9.202;2023-04-01T19:32:35;7.47;;;4.63;;
9759;SDS011;4919;48.792;9.202;2023-04-01T19:35:49;9.40;;;5.20;;
9759;SDS011;4919;48.792;9.202;2023-04-01T19:44:53;7.53;;;5.27;;
9759;SDS011;4919;48.792;9.202;2023-04-01T19:51:22;7.93;;;5.43;;
9759;SDS011;4919;48.792;9.202;2023-04-01T20:00:34;10.23;;;5.70;;
9759;SDS011;4919;48.792;9.202;2023-04-01T20:12:51;8.43;;;5.90;;
9759;SDS011;4919;48.792;9.202;2023-04-01T20:15:42;9.37;;;6.30;;
9759;SDS011;4919;48.792;9.202;2023-04-01T20:18:34;10.63;;;7.40;;
9759;SDS011;4919;48.792;9.202;2023-04-01T20:21:45;9.73;;;6.30;;
9759;SDS011;4919;48.792;9.202;2023-04-01T20:24:41;8.47;;;6.33;;
9759;SDS011;4919;48.792;9.202;2023-04-01T20:27:31;9.60;;;6.40;;
9759;SDS011;4919;48.792;9.202;2023-04-01T20:33:42;10.07;;;6.90;;
9759;SDS011;4919;48.792;9.202;2023-04-01T20:46:11;10.90;;;6.30;;
9759;SDS011;4919;48.792;9.202;2023-04-01T21:16:53;10.13;;;6.43;;
9759;SDS011;4919;48.792;9.202;2023-04-01T21:29:26;12.33;;;6.67;;
9759;SDS011;4919;48.792;9.202;2023-04-01T21:38:42;10.07;;;7.00;;
9759;SDS011;4919;48.792;9.202;2023-04-01T21:47:57;9.63;;;6.47;;
9759;SDS011;4919;48.792;9.202;2023-04-01T21:54:20;10.07;;;6.93;;
9759;SDS011;4919;48.792;9.202;2023-04-01T22:12:06;14.23;;;6.67;;
9759;SDS011;4919;48.792;9.202;2023-04-01T22:18:34;10.80;;;6.60;;
9759;SDS011;4919;48.792;9.202;2023-04-01T22:21:46;12.07;;;6.67;;
9759;SDS011;4919;48.792;9.202;2023-04-01T22:24:46;10.93;;;6.77;;
9759;SDS011;4919;48.792;9.202;2023-04-01T22:27:56;12.57;;;6.67;;
9759;SDS011;4919;48.792;9.202;2023-04-01T22:30:49;11.67;;;8.17;;
9759;SDS011;4919;48.792;9.202;2023-04-01T22:33:48;13.30;;;9.57;;
9759;SDS011;4919;48.792;9.202;2023-04-01T22:36:44;12.63;;;7.40;;
9759;SDS011;4919;48.792;9.202;2023-04-01T22:45:21;11.17;;;6.30;;
9759;SDS011;4919;48.792;9.202;2023-04-01T22:51:24;7.60;;;5.00;;
9759;SDS011;4919;48.792;9.202;2023-04-01T22:54:22;8.33;;;5.83;;
9759;SDS011;4919;48.792;9.202;2023-04-01T23:03:36;7.97;;;4.80;;
9759;SDS011;4919;48.792;9.202;2023-04-01T23:06:26;8.97;;;5.10;;
9759;SDS011;4919;48.792;9.202;2023-04-01T23:12:13;8.93;;;5.20;;
9759;SDS011;4919;48.792;9.202;2023-04-01T23:15:00;7.50;;;5.10;;
9759;SDS011;4919;48.792;9.202;2023-04-01T23:24:05;6.80;;;4.63;;
9759;SDS011;4919;48.792;9.202;2023-04-01T23:27:21;8.50;;;5.07;;
9759;SDS011;4919;48.792;9.202;2023-04-01T23:30:03;6.90;;;5.03;;
9759;SDS011;4919;48.792;9.202;2023-04-01T23:32:48;6.80;;;4.50;;
9759;SDS011;4919;48.792;9.202;2023-04-01T23:35:33;6.73;;;4.60;;
9759;SDS011;4919;48.792;9.202;2023-04-01T23:38:40;5.77;;;4.47;;
9759;SDS011;4919;48.792;9.202;2023-04-01T23:41:30;6.13;;;4.13;;
9759;SDS011;4919;48.792;9.202;2023-04-01T23:44:16;6.33;;;4.43;;
9759;SDS011;4919;48.792;9.202;2023-04-01T23:47:01;6.60;;;4.70;;
9759;SDS011;4919;48.792;9.202;2023-04-01T23:49:50;6.20;;;4.20;;
9759;SDS011;4919;48.792;9.202;2023-04-01T23:52:40;6.57;;;4.20;;
9759;SDS011;4919;48.792;9.202;2023-04-01T23:55:29;7.93;;;4.30;;
